sensor_id;sensor_type;location;lat;lon;timestamp;temperature;humidity
5218;DHT22;26539;51.064;6.346;2022-12-29T05:34:22;12.40;1.00
5218;DHT22;26539;51.064;6.346;2022-12-29T05:36:48;12.30;99.90
5218;DHT22;26539;51.064;6.346;2022-12-29T05:39:14;12.30;1.00
5218;DHT22;26539;51.064;6.346;2022-12-29T05:41:44;12.20;99.90
5218;DHT22;26539;51.064;6.346;2022-12-29T05:44:18;12.20;99.90
5218;DHT22;26539;51.064;6.346;2022-12-29T05:46:46;12.20;99.90
5218;DHT22;26539;51.064;6.346;2022-12-29T05:49:12;12.20;99.90
5218;DHT22;26539;51.064;6.346;2022-12-29T05:51:37;12.20;99.90
5218;DHT22;26539;51.064;6.346;2022-12-29T05:54:03;12.20;99.90
5218;DHT22;26539;51.064;6.346;2022-12-29T05:56:29;12.10;99.90
5218;DHT22;26539;51.064;6.346;2022-12-29T05:58:54;12.10;99.90
5218;DHT22;26539;51.064;6.346;2022-12-29T06:01:20;12.10;99.90
5218;DHT22;26539;51.064;6.346;2022-12-29T06:03:46;12.10;99.90
5218;DHT22;26539;51.064;6.346;2022-12-29T06:06:11;12.10;99.90
5218;DHT22;26539;51.064;6.346;2022-12-29T06:08:40;12.10;99.90
5218;DHT22;26539;51.064;6.346;2022-12-29T06:11:14;12.00;99.90
5218;DHT22;26539;51.064;6.346;2022-12-29T06:13:39;12.00;99.90
5218;DHT22;26539;51.064;6.346;2022-12-29T06:16:05;12.00;99.90
5218;DHT22;26539;51.064;6.346;2022-12-29T06:18:31;12.00;99.90
5218;DHT22;26539;51.064;6.346;2022-12-29T06:21:01;11.90;99.90
5218;DHT22;26539;51.064;6.346;2022-12-29T06:23:27;11.90;99.90
5218;DHT22;26539;51.064;6.346;2022-12-29T06:25:52;12.00;99.90
5218;DHT22;26539;51.064;6.346;2022-12-29T06:28:18;12.00;99.90
5218;DHT22;26539;51.064;6.346;2022-12-29T06:30:44;12.00;99.90
5218;DHT22;26539;51.064;6.346;2022-12-29T06:33:11;12.10;99.90
5218;DHT22;26539;51.064;6.346;2022-12-29T06:35:39;12.10;91.90
5218;DHT22;26539;51.064;6.346;2022-12-29T06:38:11;12.10;23.60
5218;DHT22;26539;51.064;6.346;2022-12-29T06:40:36;12.10;1.00
5218;DHT22;26539;51.064;6.346;2022-12-29T06:43:02;12.20;1.00
5218;DHT22;26539;51.064;6.346;2022-12-29T06:45:27;12.20;1.00
5218;DHT22;26539;51.064;6.346;2022-12-29T06:47:53;12.20;1.00
5218;DHT22;26539;51.064;6.346;2022-12-29T06:50:18;12.20;1.00
5218;DHT22;26539;51.064;6.346;2022-12-29T06:52:44;12.20;1.00
5218;DHT22;26539;51.064;6.346;2022-12-29T06:55:15;12.20;1.00
5218;DHT22;26539;51.064;6.346;2022-12-29T06:57:46;12.20;1.00
5218;DHT22;26539;51.064;6.346;2022-12-29T07:00:12;12.30;1.00
5218;DHT22;26539;51.064;6.346;2022-12-29T07:02:45;12.20;1.00
5218;DHT22;26539;51.064;6.346;2022-12-29T07:05:10;12.30;1.00
5218;DHT22;26539;51.064;6.346;2022-12-29T07:07:46;12.20;1.00
5218;DHT22;26539;51.064;6.346;2022-12-29T07:10:12;12.20;1.00
5218;DHT22;26539;51.064;6.346;2022-12-29T07:12:38;12.20;1.00
5218;DHT22;26539;51.064;6.346;2022-12-29T07:15:03;12.20;1.00
5218;DHT22;26539;51.064;6.346;2022-12-29T07:17:29;12.10;1.00
5218;DHT22;26539;51.064;6.346;2022-12-29T07:20:10;12.10;1.00
5218;DHT22;26539;51.064;6.346;2022-12-29T07:22:39;12.10;1.00
5218;DHT22;26539;51.064;6.346;2022-12-29T07:25:07;12.10;99.90
5218;DHT22;26539;51.064;6.346;2022-12-29T07:27:33;12.10;99.90
5218;DHT22;26539;51.064;6.346;2022-12-29T07:29:58;12.00;99.90
5218;DHT22;26539;51.064;6.346;2022-12-29T07:32:26;12.00;99.90
5218;DHT22;26539;51.064;6.346;2022-12-29T07:34:52;12.00;99.90
5218;DHT22;26539;51.064;6.346;2022-12-29T07:37:18;12.00;99.90
5218;DHT22;26539;51.064;6.346;2022-12-29T07:39:43;12.00;99.90
5218;DHT22;26539;51.064;6.346;2022-12-29T07:42:09;12.10;99.90
5218;DHT22;26539;51.064;6.346;2022-12-29T07:44:34;12.10;99.90
5218;DHT22;26539;51.064;6.346;2022-12-29T07:47:02;12.00;99.90
5218;DHT22;26539;51.064;6.346;2022-12-29T07:49:27;12.10;99.90
5218;DHT22;26539;51.064;6.346;2022-12-29T07:51:55;12.10;99.90
5218;DHT22;26539;51.064;6.346;2022-12-29T07:54:24;12.10;99.90
5218;DHT22;26539;51.064;6.346;2022-12-29T07:56:50;12.10;99.90
5218;DHT22;26539;51.064;6.346;2022-12-29T07:59:25;12.10;99.90
5218;DHT22;26539;51.064;6.346;2022-12-29T08:02:03;12.10;99.90
5218;DHT22;26539;51.064;6.346;2022-12-29T08:04:49;12.10;99.90
5218;DHT22;26539;51.064;6.346;2022-12-29T08:07:45;12.20;99.90
5218;DHT22;26539;51.064;6.346;2022-12-29T08:10:24;12.10;99.90
5218;DHT22;26539;51.064;6.346;2022-12-29T08:12:50;12.10;99.90
5218;DHT22;26539;51.064;6.346;2022-12-29T08:15:16;12.20;99.90
5218;DHT22;26539;51.064;6.346;2022-12-29T08:17:42;12.10;99.90
5218;DHT22;26539;51.064;6.346;2022-12-29T08:20:10;12.00;99.90
5218;DHT22;26539;51.064;6.346;2022-12-29T08:22:36;11.80;1.00
5218;DHT22;26539;51.064;6.346;2022-12-29T08:25:10;11.60;3.90
5218;DHT22;26539;51.064;6.346;2022-12-29T08:27:39;11.50;99.90
5218;DHT22;26539;51.064;6.346;2022-12-29T08:30:05;11.50;99.90
5218;DHT22;26539;51.064;6.346;2022-12-29T08:32:48;11.40;99.90
5218;DHT22;26539;51.064;6.346;2022-12-29T08:35:17;11.40;99.90
5218;DHT22;26539;51.064;6.346;2022-12-29T08:37:43;11.50;99.90
5218;DHT22;26539;51.064;6.346;2022-12-29T08:40:14;11.50;1.00
5218;DHT22;26539;51.064;6.346;2022-12-29T08:42:52;11.70;99.90
5218;DHT22;26539;51.064;6.346;2022-12-29T08:45:18;11.80;99.90
5218;DHT22;26539;51.064;6.346;2022-12-29T08:47:49;11.90;52.50
5218;DHT22;26539;51.064;6.346;2022-12-29T08:50:20;12.00;1.00
5218;DHT22;26539;51.064;6.346;2022-12-29T08:53:01;12.10;1.00
5218;DHT22;26539;51.064;6.346;2022-12-29T08:55:34;12.50;1.00
5218;DHT22;26539;51.064;6.346;2022-12-29T08:58:20;12.80;99.90
5218;DHT22;26539;51.064;6.346;2022-12-29T09:00:45;13.20;99.90
5218;DHT22;26539;51.064;6.346;2022-12-29T09:03:20;13.30;40.80
5218;DHT22;26539;51.064;6.346;2022-12-29T09:11:54;14.10;1.00
5218;DHT22;26539;51.064;6.346;2022-12-29T09:14:31;14.40;1.00
5218;DHT22;26539;51.064;6.346;2022-12-29T09:17:05;14.50;1.00
5218;DHT22;26539;51.064;6.346;2022-12-29T09:30:14;15.10;99.90
5218;DHT22;26539;51.064;6.346;2022-12-29T09:32:53;15.00;99.90
5218;DHT22;26539;51.064;6.346;2022-12-29T09:35:22;14.80;99.90
5218;DHT22;26539;51.064;6.346;2022-12-29T09:38:10;14.60;99.90
5218;DHT22;26539;51.064;6.346;2022-12-29T09:40:59;14.50;99.90
5218;DHT22;26539;51.064;6.346;2022-12-29T09:44:12;14.60;99.90
5218;DHT22;26539;51.064;6.346;2022-12-29T09:46:57;14.70;99.90
5218;DHT22;26539;51.064;6.346;2022-12-29T09:53:31;15.00;99.90
5218;DHT22;26539;51.064;6.346;2022-12-29T09:56:04;15.20;99.90
5218;DHT22;26539;51.064;6.346;2022-12-29T09:58:58;15.30;99.90
5218;DHT22;26539;51.064;6.346;2022-12-29T10:02:01;15.20;99.90
5218;DHT22;26539;51.064;6.346;2022-12-29T10:04:29;15.20;99.90
5218;DHT22;26539;51.064;6.346;2022-12-29T10:07:20;15.10;99.90
5218;DHT22;26539;51.064;6.346;2022-12-29T10:13:20;15.00;99.90
5218;DHT22;26539;51.064;6.346;2022-12-29T10:18:44;15.00;99.90
5218;DHT22;26539;51.064;6.346;2022-12-29T10:21:52;15.10;99.90
5218;DHT22;26539;51.064;6.346;2022-12-29T10:24:29;15.20;99.90
5218;DHT22;26539;51.064;6.346;2022-12-29T10:26:58;15.30;99.90
5218;DHT22;26539;51.064;6.346;2022-12-29T10:29:29;15.30;99.90
5218;DHT22;26539;51.064;6.346;2022-12-29T10:34:51;15.30;99.90
5218;DHT22;26539;51.064;6.346;2022-12-29T10:40:23;15.30;99.90
5218;DHT22;26539;51.064;6.346;2022-12-29T10:43:03;15.20;99.90
5218;DHT22;26539;51.064;6.346;2022-12-29T10:45:31;15.10;99.90
5218;DHT22;26539;51.064;6.346;2022-12-29T10:48:03;15.00;99.90
5218;DHT22;26539;51.064;6.346;2022-12-29T10:50:32;15.00;99.90
5218;DHT22;26539;51.064;6.346;2022-12-29T10:53:01;15.00;99.90
5218;DHT22;26539;51.064;6.346;2022-12-29T10:55:43;14.90;99.90
5218;DHT22;26539;51.064;6.346;2022-12-29T10:58:21;14.90;99.90
5218;DHT22;26539;51.064;6.346;2022-12-29T11:00:53;14.90;99.90
5218;DHT22;26539;51.064;6.346;2022-12-29T11:12:26;14.80;99.90
5218;DHT22;26539;51.064;6.346;2022-12-29T11:15:14;14.80;99.90
5218;DHT22;26539;51.064;6.346;2022-12-29T11:21:31;14.80;99.90
5218;DHT22;26539;51.064;6.346;2022-12-29T11:24:05;14.90;99.90
5218;DHT22;26539;51.064;6.346;2022-12-29T11:26:33;14.90;99.90
5218;DHT22;26539;51.064;6.346;2022-12-29T11:29:16;14.80;99.90
5218;DHT22;26539;51.064;6.346;2022-12-29T11:31:54;14.60;99.90
5218;DHT22;26539;51.064;6.346;2022-12-29T11:34:22;14.50;99.90
5218;DHT22;26539;51.064;6.346;2022-12-29T11:36:52;14.40;99.90
5218;DHT22;26539;51.064;6.346;2022-12-29T11:39:38;14.20;99.90
5218;DHT22;26539;51.064;6.346;2022-12-29T11:42:17;14.00;99.90
5218;DHT22;26539;51.064;6.346;2022-12-29T11:44:54;13.80;99.90
5218;DHT22;26539;51.064;6.346;2022-12-29T11:47:25;13.70;99.90
5218;DHT22;26539;51.064;6.346;2022-12-29T11:49:55;13.60;99.90
5218;DHT22;26539;51.064;6.346;2022-12-29T11:52:35;13.60;99.90
5218;DHT22;26539;51.064;6.346;2022-12-29T11:55:17;13.60;99.90
5218;DHT22;26539;51.064;6.346;2022-12-29T11:57:44;13.50;99.90
5218;DHT22;26539;51.064;6.346;2022-12-29T12:00:21;13.50;99.90
5218;DHT22;26539;51.064;6.346;2022-12-29T12:03:19;13.40;99.90
5218;DHT22;26539;51.064;6.346;2022-12-29T12:05:52;13.40;99.90
5218;DHT22;26539;51.064;6.346;2022-12-29T12:08:39;13.40;99.90
5218;DHT22;26539;51.064;6.346;2022-12-29T12:17:18;13.10;99.90
5218;DHT22;26539;51.064;6.346;2022-12-29T12:19:59;13.10;99.90
5218;DHT22;26539;51.064;6.346;2022-12-29T12:22:50;13.10;99.90
5218;DHT22;26539;51.064;6.346;2022-12-29T12:25:24;13.00;99.90
5218;DHT22;26539;51.064;6.346;2022-12-29T12:30:57;13.00;99.90
5218;DHT22;26539;51.064;6.346;2022-12-29T12:33:46;13.00;99.90
5218;DHT22;26539;51.064;6.346;2022-12-29T12:56:14;13.00;99.90
5218;DHT22;26539;51.064;6.346;2022-12-29T13:10:47;13.40;99.90
5218;DHT22;26539;51.064;6.346;2022-12-29T13:13:25;13.60;99.90
5218;DHT22;26539;51.064;6.346;2022-12-29T13:19:08;14.30;99.90
5218;DHT22;26539;51.064;6.346;2022-12-29T13:26:57;13.90;99.90
5218;DHT22;26539;51.064;6.346;2022-12-29T13:29:40;13.80;99.90
5218;DHT22;26539;51.064;6.346;2022-12-29T13:32:17;13.60;99.90
5218;DHT22;26539;51.064;6.346;2022-12-29T13:34:54;13.60;99.90
5218;DHT22;26539;51.064;6.346;2022-12-29T13:37:26;13.70;99.90
5218;DHT22;26539;51.064;6.346;2022-12-29T13:40:03;13.70;99.90
5218;DHT22;26539;51.064;6.346;2022-12-29T13:42:37;13.70;99.90
5218;DHT22;26539;51.064;6.346;2022-12-29T13:45:21;13.60;99.90
5218;DHT22;26539;51.064;6.346;2022-12-29T13:48:06;13.50;99.90
5218;DHT22;26539;51.064;6.346;2022-12-29T13:50:36;13.40;99.90
5218;DHT22;26539;51.064;6.346;2022-12-29T14:01:34;12.90;99.90
5218;DHT22;26539;51.064;6.346;2022-12-29T14:04:20;12.80;99.90
5218;DHT22;26539;51.064;6.346;2022-12-29T14:06:58;12.80;99.90
5218;DHT22;26539;51.064;6.346;2022-12-29T14:09:56;12.70;99.90
5218;DHT22;26539;51.064;6.346;2022-12-29T14:15:29;12.60;99.90
5218;DHT22;26539;51.064;6.346;2022-12-29T14:18:44;12.50;99.90
5218;DHT22;26539;51.064;6.346;2022-12-29T14:21:19;12.40;99.90
5218;DHT22;26539;51.064;6.346;2022-12-29T14:23:49;12.40;99.90
5218;DHT22;26539;51.064;6.346;2022-12-29T14:31:50;12.30;99.90
5218;DHT22;26539;51.064;6.346;2022-12-29T14:34:39;12.20;99.90
5218;DHT22;26539;51.064;6.346;2022-12-29T14:37:23;12.20;99.90
5218;DHT22;26539;51.064;6.346;2022-12-29T14:39:49;12.20;99.90
5218;DHT22;26539;51.064;6.346;2022-12-29T14:42:19;12.20;99.90
5218;DHT22;26539;51.064;6.346;2022-12-29T14:44:53;12.20;99.90
5218;DHT22;26539;51.064;6.346;2022-12-29T14:49:50;12.10;99.90
5218;DHT22;26539;51.064;6.346;2022-12-29T14:52:22;12.10;99.90
5218;DHT22;26539;51.064;6.346;2022-12-29T14:54:52;12.10;99.90
5218;DHT22;26539;51.064;6.346;2022-12-29T14:57:37;12.10;99.90
5218;DHT22;26539;51.064;6.346;2022-12-29T15:00:19;12.10;99.90
5218;DHT22;26539;51.064;6.346;2022-12-29T15:05:45;11.90;99.90
5218;DHT22;26539;51.064;6.346;2022-12-29T15:08:13;11.90;99.90
5218;DHT22;26539;51.064;6.346;2022-12-29T15:13:24;11.80;99.90
5218;DHT22;26539;51.064;6.346;2022-12-29T15:15:57;11.80;99.90
5218;DHT22;26539;51.064;6.346;2022-12-29T15:18:29;11.80;99.90
5218;DHT22;26539;51.064;6.346;2022-12-29T15:21:05;11.80;99.90
5218;DHT22;26539;51.064;6.346;2022-12-29T15:23:33;11.70;99.90
5218;DHT22;26539;51.064;6.346;2022-12-29T15:26:06;11.70;99.90
5218;DHT22;26539;51.064;6.346;2022-12-29T15:28:42;11.70;99.90
5218;DHT22;26539;51.064;6.346;2022-12-29T15:31:12;11.70;99.90
5218;DHT22;26539;51.064;6.346;2022-12-29T15:33:43;11.70;99.90
5218;DHT22;26539;51.064;6.346;2022-12-29T15:36:27;11.70;99.90
5218;DHT22;26539;51.064;6.346;2022-12-29T15:38:53;11.60;99.90
5218;DHT22;26539;51.064;6.346;2022-12-29T15:41:42;11.60;99.90
5218;DHT22;26539;51.064;6.346;2022-12-29T15:47:29;11.50;99.90
5218;DHT22;26539;51.064;6.346;2022-12-29T15:50:23;11.50;99.90
5218;DHT22;26539;51.064;6.346;2022-12-29T15:52:51;11.50;99.90
5218;DHT22;26539;51.064;6.346;2022-12-29T15:55:24;11.40;99.90
5218;DHT22;26539;51.064;6.346;2022-12-29T15:58:03;11.30;99.90
5218;DHT22;26539;51.064;6.346;2022-12-29T16:00:32;11.30;99.90
5218;DHT22;26539;51.064;6.346;2022-12-29T16:03:03;11.20;99.90
5218;DHT22;26539;51.064;6.346;2022-12-29T16:05:37;11.10;99.90
5218;DHT22;26539;51.064;6.346;2022-12-29T16:08:04;11.10;99.90
5218;DHT22;26539;51.064;6.346;2022-12-29T16:10:51;11.00;99.90
5218;DHT22;26539;51.064;6.346;2022-12-29T16:13:31;11.00;99.90
5218;DHT22;26539;51.064;6.346;2022-12-29T16:16:07;10.90;99.90
5218;DHT22;26539;51.064;6.346;2022-12-29T16:18:36;10.90;99.90
5218;DHT22;26539;51.064;6.346;2022-12-29T16:21:03;10.90;99.90
5218;DHT22;26539;51.064;6.346;2022-12-29T16:23:31;10.90;99.90
5218;DHT22;26539;51.064;6.346;2022-12-29T16:26:20;10.90;99.90
5218;DHT22;26539;51.064;6.346;2022-12-29T16:28:55;10.90;99.90
5218;DHT22;26539;51.064;6.346;2022-12-29T16:32:22;10.90;99.90
5218;DHT22;26539;51.064;6.346;2022-12-29T16:37:31;10.90;99.90
5218;DHT22;26539;51.064;6.346;2022-12-29T16:42:49;10.90;99.90
5218;DHT22;26539;51.064;6.346;2022-12-29T16:50:37;10.90;99.90
5218;DHT22;26539;51.064;6.346;2022-12-29T16:53:15;10.90;99.90
5218;DHT22;26539;51.064;6.346;2022-12-29T16:55:55;10.90;99.90
5218;DHT22;26539;51.064;6.346;2022-12-29T16:58:27;10.90;99.90
5218;DHT22;26539;51.064;6.346;2022-12-29T17:00:59;10.90;99.90
5218;DHT22;26539;51.064;6.346;2022-12-29T17:03:41;10.90;99.90
5218;DHT22;26539;51.064;6.346;2022-12-29T17:06:16;10.90;99.90
5218;DHT22;26539;51.064;6.346;2022-12-29T17:08:46;10.90;99.90
5218;DHT22;26539;51.064;6.346;2022-12-29T17:11:28;10.90;99.90
5218;DHT22;26539;51.064;6.346;2022-12-29T17:14:39;10.90;99.90
5218;DHT22;26539;51.064;6.346;2022-12-29T17:17:33;10.90;1.00
5218;DHT22;26539;51.064;6.346;2022-12-29T17:22:49;10.80;1.00
5218;DHT22;26539;51.064;6.346;2022-12-29T17:25:22;10.80;1.00
5218;DHT22;26539;51.064;6.346;2022-12-29T17:28:13;10.80;1.00
5218;DHT22;26539;51.064;6.346;2022-12-29T17:30:50;10.80;1.00
5218;DHT22;26539;51.064;6.346;2022-12-29T17:33:18;10.70;1.00
5218;DHT22;26539;51.064;6.346;2022-12-29T17:35:47;10.60;1.00
5218;DHT22;26539;51.064;6.346;2022-12-29T17:38:27;10.60;1.00
5218;DHT22;26539;51.064;6.346;2022-12-29T17:40:53;10.50;16.30
5218;DHT22;26539;51.064;6.346;2022-12-29T17:43:19;10.50;59.00
5218;DHT22;26539;51.064;6.346;2022-12-29T17:45:53;10.40;96.70
5218;DHT22;26539;51.064;6.346;2022-12-29T17:48:20;10.40;99.90
5218;DHT22;26539;51.064;6.346;2022-12-29T17:50:53;10.30;75.50
5218;DHT22;26539;51.064;6.346;2022-12-29T17:56:56;10.10;99.50
5218;DHT22;26539;51.064;6.346;2022-12-29T17:59:21;10.00;99.90
5218;DHT22;26539;51.064;6.346;2022-12-29T18:01:50;9.90;99.90
5218;DHT22;26539;51.064;6.346;2022-12-29T18:04:23;9.80;99.90
5218;DHT22;26539;51.064;6.346;2022-12-29T18:07:04;9.80;99.90
5218;DHT22;26539;51.064;6.346;2022-12-29T18:09:37;9.70;99.90
5218;DHT22;26539;51.064;6.346;2022-12-29T18:12:06;9.70;99.90
5218;DHT22;26539;51.064;6.346;2022-12-29T18:14:49;9.70;99.90
5218;DHT22;26539;51.064;6.346;2022-12-29T18:19:57;9.70;99.90
5218;DHT22;26539;51.064;6.346;2022-12-29T18:22:29;9.70;99.90
5218;DHT22;26539;51.064;6.346;2022-12-29T18:28:15;9.60;1.00
5218;DHT22;26539;51.064;6.346;2022-12-29T18:31:12;9.60;1.00
5218;DHT22;26539;51.064;6.346;2022-12-29T18:33:52;9.60;1.00
5218;DHT22;26539;51.064;6.346;2022-12-29T18:36:56;9.50;1.00
5218;DHT22;26539;51.064;6.346;2022-12-29T18:39:30;9.50;1.00
5218;DHT22;26539;51.064;6.346;2022-12-29T18:42:08;9.50;1.00
5218;DHT22;26539;51.064;6.346;2022-12-29T18:44:50;9.50;1.00
5218;DHT22;26539;51.064;6.346;2022-12-29T18:47:42;9.50;1.00
5218;DHT22;26539;51.064;6.346;2022-12-29T18:50:14;9.50;1.00
5218;DHT22;26539;51.064;6.346;2022-12-29T18:52:48;9.50;1.00
5218;DHT22;26539;51.064;6.346;2022-12-29T18:55:37;9.50;99.90
5218;DHT22;26539;51.064;6.346;2022-12-29T18:58:13;9.40;99.90
5218;DHT22;26539;51.064;6.346;2022-12-29T19:00:45;9.40;99.90
5218;DHT22;26539;51.064;6.346;2022-12-29T19:03:12;9.30;99.90
5218;DHT22;26539;51.064;6.346;2022-12-29T19:05:46;9.30;1.00
5218;DHT22;26539;51.064;6.346;2022-12-29T19:08:16;9.20;1.00
5218;DHT22;26539;51.064;6.346;2022-12-29T19:10:42;9.20;1.00
5218;DHT22;26539;51.064;6.346;2022-12-29T19:13:30;9.10;1.00
5218;DHT22;26539;51.064;6.346;2022-12-29T19:19:15;9.00;1.00
5218;DHT22;26539;51.064;6.346;2022-12-29T19:21:43;9.00;1.00
5218;DHT22;26539;51.064;6.346;2022-12-29T19:24:12;8.90;1.00
5218;DHT22;26539;51.064;6.346;2022-12-29T19:26:56;8.90;1.00
5218;DHT22;26539;51.064;6.346;2022-12-29T19:30:00;8.90;1.00
5218;DHT22;26539;51.064;6.346;2022-12-29T19:32:41;8.90;1.00
5218;DHT22;26539;51.064;6.346;2022-12-29T19:35:13;8.80;1.00
5218;DHT22;26539;51.064;6.346;2022-12-29T19:40:47;8.80;15.90
5218;DHT22;26539;51.064;6.346;2022-12-29T19:43:13;8.80;54.30
5218;DHT22;26539;51.064;6.346;2022-12-29T19:45:42;8.70;95.50
5218;DHT22;26539;51.064;6.346;2022-12-29T19:48:20;8.70;99.90
5218;DHT22;26539;51.064;6.346;2022-12-29T19:50:46;8.70;99.90
5218;DHT22;26539;51.064;6.346;2022-12-29T19:53:18;8.60;99.90
5218;DHT22;26539;51.064;6.346;2022-12-29T19:55:52;8.70;99.90
5218;DHT22;26539;51.064;6.346;2022-12-29T19:58:23;8.70;99.90
5218;DHT22;26539;51.064;6.346;2022-12-29T20:01:32;8.60;99.90
5218;DHT22;26539;51.064;6.346;2022-12-29T20:04:18;8.60;99.90
5218;DHT22;26539;51.064;6.346;2022-12-29T20:09:35;8.60;1.00
5218;DHT22;26539;51.064;6.346;2022-12-29T20:12:18;8.60;1.00
5218;DHT22;26539;51.064;6.346;2022-12-29T20:15:00;8.60;1.00
5218;DHT22;26539;51.064;6.346;2022-12-29T20:17:32;8.60;5.00
5218;DHT22;26539;51.064;6.346;2022-12-29T20:20:12;8.60;58.10
5218;DHT22;26539;51.064;6.346;2022-12-29T20:22:48;8.60;99.90
5218;DHT22;26539;51.064;6.346;2022-12-29T20:25:37;8.60;99.90
5218;DHT22;26539;51.064;6.346;2022-12-29T20:28:38;8.60;99.90
5218;DHT22;26539;51.064;6.346;2022-12-29T20:31:32;8.50;99.90
5218;DHT22;26539;51.064;6.346;2022-12-29T20:34:14;8.60;99.90
5218;DHT22;26539;51.064;6.346;2022-12-29T20:36:49;8.60;99.90
5218;DHT22;26539;51.064;6.346;2022-12-29T20:39:34;8.60;93.90
5218;DHT22;26539;51.064;6.346;2022-12-29T20:42:27;8.50;29.60
5218;DHT22;26539;51.064;6.346;2022-12-29T20:44:56;8.50;22.10
5218;DHT22;26539;51.064;6.346;2022-12-29T20:47:21;8.50;49.60
5218;DHT22;26539;51.064;6.346;2022-12-29T20:49:47;8.50;73.50
5218;DHT22;26539;51.064;6.346;2022-12-29T20:52:20;8.50;90.60
5218;DHT22;26539;51.064;6.346;2022-12-29T20:54:45;8.50;61.10
5218;DHT22;26539;51.064;6.346;2022-12-29T20:57:11;8.50;1.00
5218;DHT22;26539;51.064;6.346;2022-12-29T20:59:37;8.50;1.00
5218;DHT22;26539;51.064;6.346;2022-12-29T21:02:03;8.60;1.00
5218;DHT22;26539;51.064;6.346;2022-12-29T21:04:53;8.60;1.00
5218;DHT22;26539;51.064;6.346;2022-12-29T21:24:06;8.60;99.90
5218;DHT22;26539;51.064;6.346;2022-12-29T21:26:32;8.60;88.00
5218;DHT22;26539;51.064;6.346;2022-12-29T21:29:04;8.60;30.90
5218;DHT22;26539;51.064;6.346;2022-12-29T21:31:33;8.60;17.80
5218;DHT22;26539;51.064;6.346;2022-12-29T21:34:17;8.60;17.60
5218;DHT22;26539;51.064;6.346;2022-12-29T21:36:43;8.60;6.20
5218;DHT22;26539;51.064;6.346;2022-12-29T21:39:08;8.60;1.00
5218;DHT22;26539;51.064;6.346;2022-12-29T21:41:34;8.60;1.00
5218;DHT22;26539;51.064;6.346;2022-12-29T21:44:00;8.60;1.00
5218;DHT22;26539;51.064;6.346;2022-12-29T21:46:44;8.50;21.00
5218;DHT22;26539;51.064;6.346;2022-12-29T21:49:12;8.50;46.20
5218;DHT22;26539;51.064;6.346;2022-12-29T21:51:37;8.50;99.90
5218;DHT22;26539;51.064;6.346;2022-12-29T21:54:31;8.50;99.90
5218;DHT22;26539;51.064;6.346;2022-12-29T21:57:17;8.50;99.90
5218;DHT22;26539;51.064;6.346;2022-12-29T22:00:04;8.40;99.90
5218;DHT22;26539;51.064;6.346;2022-12-29T22:02:48;8.40;99.90
5218;DHT22;26539;51.064;6.346;2022-12-29T22:05:32;8.40;99.90
5218;DHT22;26539;51.064;6.346;2022-12-29T22:08:43;8.30;99.90
5218;DHT22;26539;51.064;6.346;2022-12-29T22:11:48;8.30;99.90
5218;DHT22;26539;51.064;6.346;2022-12-29T22:14:33;8.30;99.90
5218;DHT22;26539;51.064;6.346;2022-12-29T22:16:58;8.30;99.90
5218;DHT22;26539;51.064;6.346;2022-12-29T22:19:24;8.30;99.90
5218;DHT22;26539;51.064;6.346;2022-12-29T22:21:49;8.20;99.90
5218;DHT22;26539;51.064;6.346;2022-12-29T22:24:15;8.20;99.90
5218;DHT22;26539;51.064;6.346;2022-12-29T22:26:40;8.20;99.90
5218;DHT22;26539;51.064;6.346;2022-12-29T22:29:06;8.20;99.90
5218;DHT22;26539;51.064;6.346;2022-12-29T22:31:31;8.20;99.90
5218;DHT22;26539;51.064;6.346;2022-12-29T22:34:01;8.20;99.90
5218;DHT22;26539;51.064;6.346;2022-12-29T22:36:28;8.20;99.90
5218;DHT22;26539;51.064;6.346;2022-12-29T22:38:54;8.20;99.90
5218;DHT22;26539;51.064;6.346;2022-12-29T22:41:22;8.10;99.90
5218;DHT22;26539;51.064;6.346;2022-12-29T22:43:48;8.20;99.90
5218;DHT22;26539;51.064;6.346;2022-12-29T22:46:13;8.10;1.00
5218;DHT22;26539;51.064;6.346;2022-12-29T22:48:39;8.10;1.00
5218;DHT22;26539;51.064;6.346;2022-12-29T22:51:04;8.10;1.00
5218;DHT22;26539;51.064;6.346;2022-12-29T22:53:30;8.10;1.00
5218;DHT22;26539;51.064;6.346;2022-12-29T22:56:04;8.10;1.00
5218;DHT22;26539;51.064;6.346;2022-12-29T22:58:30;8.10;1.00
5218;DHT22;26539;51.064;6.346;2022-12-29T23:00:59;8.10;1.00
5218;DHT22;26539;51.064;6.346;2022-12-29T23:03:25;8.00;1.00
5218;DHT22;26539;51.064;6.346;2022-12-29T23:06:04;8.00;1.00
5218;DHT22;26539;51.064;6.346;2022-12-29T23:08:33;8.00;1.00
5218;DHT22;26539;51.064;6.346;2022-12-29T23:10:59;8.00;1.00
5218;DHT22;26539;51.064;6.346;2022-12-29T23:13:37;8.00;1.00
5218;DHT22;26539;51.064;6.346;2022-12-29T23:16:05;8.00;1.00
5218;DHT22;26539;51.064;6.346;2022-12-29T23:18:31;8.00;1.00
5218;DHT22;26539;51.064;6.346;2022-12-29T23:20:56;8.00;1.00
5218;DHT22;26539;51.064;6.346;2022-12-29T23:23:22;7.90;1.00
5218;DHT22;26539;51.064;6.346;2022-12-29T23:26:06;7.90;1.00
5218;DHT22;26539;51.064;6.346;2022-12-29T23:28:33;8.00;1.00
5218;DHT22;26539;51.064;6.346;2022-12-29T23:31:01;7.90;1.00
5218;DHT22;26539;51.064;6.346;2022-12-29T23:33:26;7.90;1.00
5218;DHT22;26539;51.064;6.346;2022-12-29T23:35:52;7.90;1.00
5218;DHT22;26539;51.064;6.346;2022-12-29T23:38:20;7.90;1.00
5218;DHT22;26539;51.064;6.346;2022-12-29T23:40:52;7.90;1.00
5218;DHT22;26539;51.064;6.346;2022-12-29T23:43:17;7.90;1.00
5218;DHT22;26539;51.064;6.346;2022-12-29T23:45:43;7.80;1.00
5218;DHT22;26539;51.064;6.346;2022-12-29T23:48:11;7.90;1.00
5218;DHT22;26539;51.064;6.346;2022-12-29T23:50:40;7.90;1.00
5218;DHT22;26539;51.064;6.346;2022-12-29T23:53:07;7.80;1.00
5218;DHT22;26539;51.064;6.346;2022-12-29T23:55:33;7.80;1.00
5218;DHT22;26539;51.064;6.346;2022-12-29T23:57:58;7.80;1.00
